This is the latest recevied weather packets stored in our database for station/object KQ7A. If no packets are shown the sender has not sent any weather packets the latest 1 day(s).
| Time | Temp. | Humidity | Pressure | Rain* | Wind** | Luminosity | Snow |
|---|---|---|---|---|---|---|---|
| 1778055439 | 7.22° C | 88% | 1017.8 hPa | 0 mm | - | 0 W/m² | - |
| 1778055136 | 7.78° C | 86% | 1017.9 hPa | 0 mm | - | 0 W/m² | - |
| 1778054834 | 7.78° C | 84% | 1017.8 hPa | 0 mm | - | 0 W/m² | - |
| 1778054530 | 7.78° C | 83% | 1017.7 hPa | 0 mm | - | 0 W/m² | - |
| 1778053924 | 8.33° C | 82% | 1017.7 hPa | 0 mm | - | 0 W/m² | - |
| 1778053623 | 8.33° C | 83% | 1017.6 hPa | 0 mm | - | 0 W/m² | - |
| 1778053017 | 8.33° C | 85% | 1017.8 hPa | 0 mm | - | 0 W/m² | - |
| 1778051806 | 8.89° C | 83% | 1017 hPa | 0 mm | - | 0 W/m² | - |
| 1778050596 | 10° C | 76% | 1017.1 hPa | 0 mm | - | 0 W/m² | - |
| 1778050292 | 10° C | 78% | 1017.3 hPa | 0 mm | - | 0 W/m² | - |
| 1778049989 | 10° C | 76% | 1017.6 hPa | 0 mm | - | 0 W/m² | - |
| 1778049684 | 10.56° C | 74% | 1017.6 hPa | 0 mm | - | 0 W/m² | - |
| 1778048778 | 10° C | 76% | 1017.5 hPa | 0 mm | - | 0 W/m² | - |
| 1778048475 | 8.89° C | 84% | 1017.5 hPa | 0 mm | - | 0 W/m² | - |
| 1778046961 | 8.89° C | 82% | 1017.1 hPa | 0 mm | - | 0 W/m² | - |
| 1778046657 | 8.89° C | 82% | 1016.7 hPa | 0 mm | - | 0 W/m² | - |
| 1778045748 | 8.89° C | 84% | 1016.1 hPa | 0 mm | - | 0 W/m² | - |
| 1778045144 | 8.89° C | 85% | 1015.9 hPa | 0 mm | - | 0 W/m² | - |
| 1778044842 | 8.89° C | 85% | 1016 hPa | 0 mm | - | 0 W/m² | - |
| 1778043933 | 8.89° C | 81% | 1016.2 hPa | 0 mm | - | 0 W/m² | - |
| 1778043327 | 8.89° C | 82% | 1016.1 hPa | 0 mm | - | 0 W/m² | - |
| 1778042418 | 8.89° C | 79% | 1015.9 hPa | 0 mm | - | 0 W/m² | - |
| 1778042115 | 9.44° C | 79% | 1015.6 hPa | 0 mm | - | 0 W/m² | - |
| 1778041814 | 8.89° C | 80% | 1015.6 hPa | 0 mm | - | 0 W/m² | - |
| 1778041210 | 8.89° C | 84% | 1015.5 hPa | 0 mm | - | 0 W/m² | - |
* Rain latest hour (hover to see other rain measurements)
** Current wind speed in m/s (hover to see current wind gust speed)